Time;durP1;ratioP1;P1;durP2;ratioP2;P2;SDS_P1;SDS_P2;PMS_P1;PMS_P2;Temp;Humidity;BMP_temperature;BMP_pressure;BME280_temperature;BME280_humidity;BME280_pressure;Samples;Min_cycle;Max_cycle;Signal;HPM_P1;HPM_P2
2020/12/09 00:00:02;;;;;;;54.43;28.70;;;7.50;50.10;;;;;;5057271;28;20508;-89
2020/12/09 00:02:28;;;;;;;46.23;25.10;;;8.00;48.70;;;;;;5072899;28;20491;-89
2020/12/09 00:04:55;;;;;;;56.90;28.60;;;7.80;49.50;;;;;;5078219;28;20444;-89
2020/12/09 00:07:21;;;;;;;49.97;25.60;;;8.50;49.30;;;;;;5077879;28;20470;-89
2020/12/09 00:09:48;;;;;;;50.10;26.07;;;8.70;47.30;;;;;;5077306;28;20952;-89
2020/12/09 00:12:16;;;;;;;36.10;20.43;;;9.30;47.90;;;;;;5078533;28;20479;-89
2020/12/09 00:14:43;;;;;;;33.90;17.10;;;9.80;48.10;;;;;;5069213;28;20452;-89
2020/12/09 00:17:10;;;;;;;53.47;28.40;;;10.40;47.40;;;;;;5063541;28;20444;-89
2020/12/09 00:19:36;;;;;;;52.93;26.33;;;10.40;42.90;;;;;;5061579;28;20458;-89
2020/12/09 00:22:03;;;;;;;52.47;26.97;;;9.70;44.10;;;;;;5074571;28;20463;-89
2020/12/09 00:24:30;;;;;;;45.33;24.27;;;9.40;45.30;;;;;;5077179;28;20497;-89
2020/12/09 00:26:56;;;;;;;43.87;25.47;;;9.40;45.70;;;;;;5077770;28;20448;-89
2020/12/09 00:29:24;;;;;;;40.60;22.07;;;9.30;46.00;;;;;;5078064;28;20436;-89
2020/12/09 00:31:50;;;;;;;42.47;24.33;;;10.00;47.40;;;;;;5065760;28;20614;-89
2020/12/09 00:34:17;;;;;;;38.53;20.90;;;10.40;44.30;;;;;;5061498;28;20478;-89
2020/12/09 00:36:43;;;;;;;42.70;23.80;;;10.00;44.40;;;;;;5061024;28;20425;-89
2020/12/09 00:39:10;;;;;;;39.13;21.63;;;10.20;45.40;;;;;;5062431;28;20452;-89
2020/12/09 00:41:36;;;;;;;35.73;19.53;;;10.50;46.60;;;;;;5080340;28;20450;-90
2020/12/09 00:44:03;;;;;;;39.40;22.13;;;11.00;46.60;;;;;;5066655;28;20435;-89
2020/12/09 00:46:30;;;;;;;31.43;17.50;;;11.30;44.20;;;;;;5060629;28;20544;-89
2020/12/09 00:48:57;;;;;;;42.03;23.10;;;10.60;43.20;;;;;;5059940;28;20436;-89
2020/12/09 00:51:25;;;;;;;44.80;24.60;;;10.90;45.60;;;;;;5059000;28;20525;-89
2020/12/09 00:53:52;;;;;;;37.93;21.20;;;11.20;44.30;;;;;;5060346;28;20436;-89
2020/12/09 00:56:19;;;;;;;41.00;22.07;;;11.50;45.20;;;;;;5059976;28;20453;-89
2020/12/09 00:58:46;;;;;;;31.97;18.20;;;11.60;44.30;;;;;;5060761;28;20444;-89
2020/12/09 01:01:13;;;;;;;46.43;25.67;;;11.00;42.20;;;;;;5060151;28;20518;-90
2020/12/09 01:03:41;;;;;;;43.40;22.53;;;10.60;42.00;;;;;;5060255;28;20452;-89
2020/12/09 01:06:08;;;;;;;44.97;25.03;;;10.40;43.00;;;;;;5059258;28;20444;-89
2020/12/09 01:08:36;;;;;;;38.13;20.03;;;10.10;44.30;;;;;;5059538;28;20459;-89
2020/12/09 01:11:04;;;;;;;40.10;22.50;;;9.80;46.20;;;;;;5059732;28;20494;-89
2020/12/09 01:13:30;;;;;;;48.03;24.43;;;9.80;45.20;;;;;;5059261;28;20467;-89
2020/12/09 01:15:57;;;;;;;41.00;22.43;;;10.10;44.80;;;;;;5059547;28;20448;-89
2020/12/09 01:18:23;;;;;;;52.40;25.20;;;10.40;45.30;;;;;;5058643;28;20502;-89
2020/12/09 01:20:56;;;;;;;30.30;17.50;;;10.40;43.30;;;;;;5060430;28;20468;-89
2020/12/09 01:23:23;;;;;;;25.93;15.47;;;10.60;44.90;;;;;;5078814;28;20439;-89
2020/12/09 01:25:49;;;;;;;35.83;20.30;;;10.60;45.50;;;;;;5063072;28;20452;-89
2020/12/09 01:28:16;;;;;;;43.83;23.10;;;10.80;43.80;;;;;;5059931;28;20440;-89
2020/12/09 01:30:43;;;;;;;34.27;20.60;;;10.70;44.00;;;;;;5058195;28;20452;-89
2020/12/09 01:33:09;;;;;;;44.30;22.30;;;10.70;43.20;;;;;;5058866;28;20479;-89
2020/12/09 01:35:36;;;;;;;39.23;21.07;;;10.20;43.20;;;;;;5057915;28;20498;-89
2020/12/09 01:38:03;;;;;;;38.73;22.03;;;9.80;45.00;;;;;;5058109;28;20815;-90
2020/12/09 01:40:30;;;;;;;44.53;23.53;;;10.20;46.10;;;;;;5058077;28;20468;-89
2020/12/09 01:42:56;;;;;;;29.03;16.80;;;10.60;46.00;;;;;;5057941;28;20589;-89
2020/12/09 01:45:23;;;;;;;35.50;18.97;;;10.80;45.30;;;;;;5057698;28;20444;-89
2020/12/09 01:47:50;;;;;;;48.93;26.07;;;11.00;45.50;;;;;;5058589;28;20933;-89
2020/12/09 01:50:17;;;;;;;36.43;20.27;;;10.40;42.40;;;;;;5058300;28;20413;-90
2020/12/09 01:52:45;;;;;;;48.87;24.57;;;10.00;44.90;;;;;;5057655;28;20845;-90
2020/12/09 01:55:12;;;;;;;37.43;20.00;;;10.30;45.50;;;;;;5057427;28;20482;-90
2020/12/09 01:57:39;;;;;;;33.47;19.57;;;10.90;46.40;;;;;;5056933;28;20452;-90
2020/12/09 02:00:06;;;;;;;59.30;26.53;;;11.40;45.40;;;;;;5057043;28;20784;-90
2020/12/09 02:02:32;;;;;;;47.30;27.03;;;11.50;42.40;;;;;;5065436;28;20437;-90
2020/12/09 02:04:59;;;;;;;34.80;18.53;;;10.00;42.00;;;;;;5076412;28;20459;-88
2020/12/09 02:07:28;;;;;;;32.40;18.47;;;9.30;47.50;;;;;;5056788;28;20455;-90
2020/12/09 02:09:59;;;;;;;44.17;24.90;;;10.10;47.30;;;;;;5057161;28;20543;-88
2020/12/09 02:12:27;;;;;;;57.23;25.30;;;10.50;45.50;;;;;;5056948;28;20476;-88
2020/12/09 02:14:53;;;;;;;43.83;25.13;;;10.70;44.80;;;;;;5056603;28;20494;-88
2020/12/09 02:17:20;;;;;;;42.07;21.93;;;10.40;41.90;;;;;;5056969;28;20456;-88
2020/12/09 02:19:46;;;;;;;30.80;18.03;;;10.40;44.80;;;;;;5056650;28;20456;-88
2020/12/09 02:22:14;;;;;;;33.43;19.27;;;10.70;45.60;;;;;;5056790;28;20470;-88
2020/12/09 02:24:40;;;;;;;50.60;23.73;;;10.70;44.70;;;;;;5056689;28;20918;-88
2020/12/09 02:27:07;;;;;;;50.43;24.13;;;10.90;45.70;;;;;;5056247;28;20455;-88
2020/12/09 02:29:33;;;;;;;37.57;21.00;;;11.10;44.20;;;;;;5055983;28;20501;-88
2020/12/09 02:32:00;;;;;;;33.73;20.23;;;11.00;44.20;;;;;;5056465;28;20484;-88
2020/12/09 02:34:27;;;;;;;34.43;19.50;;;11.30;45.10;;;;;;5056757;28;20939;-88
2020/12/09 02:36:53;;;;;;;41.67;23.67;;;11.30;44.80;;;;;;5056688;28;20440;-88
2020/12/09 02:39:31;;;;;;;37.80;20.90;;;11.10;42.80;;;;;;5057011;28;20451;-88
2020/12/09 02:41:58;;;;;;;46.80;24.57;;;10.70;42.90;;;;;;5056925;28;20490;-88
2020/12/09 02:44:24;;;;;;;42.53;24.13;;;10.80;44.50;;;;;;5072337;28;20408;-88
2020/12/09 02:46:51;;;;;;;41.03;23.50;;;10.80;45.00;;;;;;5069008;28;20959;-88
2020/12/09 02:49:18;;;;;;;47.73;25.50;;;10.90;45.30;;;;;;5056237;28;20510;-89
2020/12/09 02:51:44;;;;;;;50.40;26.90;;;10.80;44.40;;;;;;5055800;28;20948;-88
2020/12/09 02:54:11;;;;;;;51.83;26.13;;;10.90;43.80;;;;;;5056630;28;20433;-88
2020/12/09 02:56:38;;;;;;;45.80;24.07;;;11.20;45.10;;;;;;5055686;28;20466;-88
2020/12/09 02:59:05;;;;;;;44.00;22.30;;;10.90;43.20;;;;;;5056011;28;20995;-88
2020/12/09 03:01:34;;;;;;;41.30;23.03;;;10.80;44.00;;;;;;5056870;28;21001;-88
2020/12/09 03:04:02;;;;;;;43.00;23.47;;;11.20;44.90;;;;;;5055605;28;20786;-88
2020/12/09 03:06:28;;;;;;;43.30;23.83;;;11.60;44.80;;;;;;5057330;28;20924;-88
2020/12/09 03:08:55;;;;;;;40.67;22.07;;;11.60;44.20;;;;;;5057238;28;20448;-89
2020/12/09 03:11:22;;;;;;;44.50;24.37;;;11.70;44.10;;;;;;5055552;28;20450;-89
2020/12/09 03:13:49;;;;;;;45.53;24.60;;;11.70;43.30;;;;;;5055996;28;20451;-89
2020/12/09 03:16:16;;;;;;;41.00;23.00;;;11.30;42.00;;;;;;5055431;28;20441;-89
2020/12/09 03:18:42;;;;;;;45.97;23.60;;;11.00;44.20;;;;;;5055561;28;20938;-88
2020/12/09 03:21:09;;;;;;;39.37;22.73;;;11.10;44.00;;;;;;5055708;28;20474;-89
2020/12/09 03:23:36;;;;;;;37.93;22.13;;;11.30;44.30;;;;;;5055646;28;20488;-88
2020/12/09 03:26:03;;;;;;;29.63;17.37;;;11.60;44.10;;;;;;5055778;28;20429;-88
2020/12/09 03:28:30;;;;;;;27.33;16.20;;;11.60;43.50;;;;;;5056027;28;20451;-88
2020/12/09 03:30:57;;;;;;;47.50;25.00;;;11.50;44.00;;;;;;5055745;28;20871;-88
2020/12/09 03:33:24;;;;;;;37.60;21.73;;;11.60;43.80;;;;;;5056941;28;20504;-88
2020/12/09 03:35:50;;;;;;;42.43;23.20;;;11.80;43.60;;;;;;5056676;28;20445;-89
2020/12/09 03:38:17;;;;;;;45.57;23.93;;;11.80;43.00;;;;;;5056802;28;20457;-89
2020/12/09 03:40:44;;;;;;;38.37;22.40;;;11.50;42.30;;;;;;5057546;28;20472;-89
2020/12/09 03:43:10;;;;;;;37.60;22.07;;;10.80;41.70;;;;;;5071195;28;20436;-89
2020/12/09 03:45:37;;;;;;;42.87;23.20;;;10.40;42.70;;;;;;5067816;28;20436;-89
2020/12/09 03:48:04;;;;;;;38.37;22.40;;;10.30;43.20;;;;;;5076932;28;20444;-89
2020/12/09 03:50:31;;;;;;;149.63;59.63;;;10.60;45.50;;;;;;5076431;28;20544;-89
2020/12/09 03:52:57;;;;;;;43.33;24.20;;;11.10;45.10;;;;;;5076550;28;20471;-89
2020/12/09 03:55:24;;;;;;;42.40;22.60;;;11.30;44.40;;;;;;5070533;28;20430;-89
2020/12/09 03:57:51;;;;;;;40.03;20.00;;;11.40;44.20;;;;;;5058046;28;20956;-89
2020/12/09 04:00:18;;;;;;;35.27;19.23;;;11.40;43.80;;;;;;5058134;28;20999;-89
2020/12/09 04:02:45;;;;;;;33.97;20.70;;;11.60;44.00;;;;;;5059074;28;20441;-89
2020/12/09 04:05:13;;;;;;;33.10;18.70;;;11.60;43.50;;;;;;5069147;28;20432;-90
2020/12/09 04:07:39;;;;;;;42.00;22.10;;;11.50;43.30;;;;;;5077381;28;20433;-90
2020/12/09 04:10:07;;;;;;;35.80;19.87;;;11.20;43.70;;;;;;5074683;28;20467;-89
2020/12/09 04:12:34;;;;;;;34.00;18.90;;;11.20;44.10;;;;;;5064610;28;20890;-89
2020/12/09 04:15:02;;;;;;;34.63;18.03;;;10.90;43.50;;;;;;5071269;28;20425;-89
2020/12/09 04:17:28;;;;;;;44.97;23.30;;;10.90;44.80;;;;;;5077177;28;20498;-90
2020/12/09 04:19:56;;;;;;;42.00;23.80;;;11.00;43.60;;;;;;5076939;28;20437;-89
2020/12/09 04:22:23;;;;;;;30.50;17.80;;;10.70;42.10;;;;;;5076930;28;20460;-90
2020/12/09 04:24:50;;;;;;;34.43;19.60;;;10.80;44.40;;;;;;5073150;28;20487;-89
2020/12/09 04:27:16;;;;;;;46.90;22.37;;;11.10;44.80;;;;;;5055729;28;20450;-88
2020/12/09 04:29:43;;;;;;;40.80;21.27;;;11.20;44.30;;;;;;5060023;28;20433;-89
2020/12/09 04:32:10;;;;;;;43.83;24.47;;;10.70;44.00;;;;;;5054714;28;20490;-88
2020/12/09 04:34:39;;;;;;;50.10;24.30;;;10.40;44.80;;;;;;5054646;28;20448;-88
2020/12/09 04:37:06;;;;;;;32.53;18.03;;;10.70;43.80;;;;;;5054427;28;20451;-88
2020/12/09 04:39:40;;;;;;;43.67;23.57;;;10.40;44.50;;;;;;5056023;28;20985;-88
2020/12/09 04:42:33;;;;;;;36.27;21.60;;;10.90;45.40;;;;;;5054233;28;20464;-88
2020/12/09 04:45:03;;;;;;;36.90;21.70;;;11.50;44.70;;;;;;5054697;28;20425;-88
2020/12/09 04:47:50;;;;;;;36.73;21.67;;;11.40;42.00;;;;;;5054462;28;20522;-88
2020/12/09 04:50:37;;;;;;;34.13;19.83;;;10.80;42.40;;;;;;5056243;28;20504;-88
2020/12/09 04:53:12;;;;;;;36.30;21.50;;;10.60;43.20;;;;;;5057309;28;20484;-88
2020/12/09 04:55:52;;;;;;;35.00;18.57;;;10.80;44.00;;;;;;5058130;28;20471;-88
2020/12/09 04:58:40;;;;;;;38.93;22.50;;;11.30;44.50;;;;;;5057502;28;20514;-88
2020/12/09 05:01:10;;;;;;;27.90;16.23;;;11.60;42.60;;;;;;5057545;28;20882;-88
2020/12/09 05:03:47;;;;;;;37.27;20.83;;;11.60;44.20;;;;;;5060168;28;20987;-89
2020/12/09 05:06:15;;;;;;;40.00;22.73;;;11.30;43.10;;;;;;5059247;28;20835;-88
2020/12/09 05:08:49;;;;;;;37.50;21.73;;;11.00;43.40;;;;;;5057010;28;20497;-88
2020/12/09 05:11:21;;;;;;;35.87;19.83;;;10.60;42.90;;;;;;5056840;28;20974;-88
2020/12/09 05:13:53;;;;;;;45.67;24.97;;;10.70;45.20;;;;;;5057261;28;20482;-88
2020/12/09 05:16:20;;;;;;;38.73;22.53;;;10.70;44.50;;;;;;5057251;28;20421;-88
2020/12/09 05:18:47;;;;;;;36.43;22.20;;;10.90;44.90;;;;;;5056928;28;20452;-88
2020/12/09 05:21:19;;;;;;;38.53;21.23;;;11.10;44.70;;;;;;5057335;28;20469;-88
2020/12/09 05:23:48;;;;;;;38.30;22.10;;;10.50;43.20;;;;;;5057322;28;20428;-88
2020/12/09 05:26:21;;;;;;;47.23;25.00;;;10.50;43.90;;;;;;5056657;28;20456;-88
2020/12/09 05:28:48;;;;;;;42.93;23.37;;;10.70;44.70;;;;;;5056967;28;20445;-88
2020/12/09 05:31:22;;;;;;;31.87;19.33;;;10.90;44.60;;;;;;5057059;28;21055;-88
2020/12/09 05:33:49;;;;;;;32.20;18.17;;;11.30;44.50;;;;;;5057284;28;20509;-88
2020/12/09 05:36:15;;;;;;;38.57;20.93;;;11.60;44.20;;;;;;5057190;28;20452;-88
2020/12/09 05:38:42;;;;;;;40.47;21.07;;;11.90;44.10;;;;;;5057087;28;20490;-88
2020/12/09 05:41:12;;;;;;;33.73;18.27;;;12.00;43.60;;;;;;5056103;28;20452;-88
2020/12/09 05:43:45;;;;;;;33.60;18.87;;;12.10;43.90;;;;;;5056249;28;20436;-88
2020/12/09 05:46:12;;;;;;;31.90;19.20;;;12.10;43.80;;;;;;5056436;28;20498;-88
2020/12/09 05:48:38;;;;;;;46.70;24.23;;;12.20;43.50;;;;;;5056236;28;20458;-88
2020/12/09 05:51:06;;;;;;;44.57;23.90;;;12.00;40.30;;;;;;5056308;28;20816;-88
2020/12/09 05:53:34;;;;;;;39.97;21.90;;;11.60;41.30;;;;;;5056051;28;20534;-88
2020/12/09 05:56:12;;;;;;;36.33;21.50;;;11.50;43.00;;;;;;5058100;28;20429;-88
2020/12/09 05:58:40;;;;;;;42.43;21.70;;;11.70;44.10;;;;;;5057581;28;20507;-89
2020/12/09 06:01:15;;;;;;;33.63;17.50;;;11.60;42.70;;;;;;5055517;28;21017;-89
2020/12/09 06:03:44;;;;;;;48.33;24.70;;;11.00;43.00;;;;;;5056795;28;20408;-88
2020/12/09 06:06:22;;;;;;;47.00;24.50;;;10.90;41.50;;;;;;5056107;28;20444;-88
2020/12/09 06:08:51;;;;;;;40.03;19.87;;;10.00;42.20;;;;;;5060175;28;20440;-88
2020/12/09 06:11:19;;;;;;;35.50;20.87;;;10.10;45.60;;;;;;5064480;28;20590;-88
2020/12/09 06:13:46;;;;;;;32.63;18.90;;;10.90;46.80;;;;;;5056946;28;20487;-88
2020/12/09 06:16:17;;;;;;;39.90;22.40;;;11.40;45.50;;;;;;5057393;28;20447;-88
2020/12/09 06:18:47;;;;;;;33.03;19.63;;;11.30;41.90;;;;;;5056949;28;20531;-88
2020/12/09 06:21:13;;;;;;;34.43;19.97;;;11.40;45.60;;;;;;5056279;28;20453;-89
2020/12/09 06:23:40;;;;;;;36.30;19.37;;;11.80;44.80;;;;;;5056714;28;20421;-89
2020/12/09 06:26:07;;;;;;;27.73;15.93;;;11.90;44.10;;;;;;5057714;28;20472;-89
2020/12/09 06:28:35;;;;;;;34.47;19.03;;;12.20;44.60;;;;;;5057390;28;20436;-89
2020/12/09 06:31:13;;;;;;;40.73;21.50;;;12.30;43.50;;;;;;5055937;28;20472;-88
2020/12/09 06:33:42;;;;;;;31.20;18.77;;;12.10;40.90;;;;;;5054848;28;20464;-88
2020/12/09 06:36:23;;;;;;;32.20;18.43;;;11.50;43.90;;;;;;5055377;28;20496;-88
2020/12/09 06:39:12;;;;;;;42.00;23.03;;;11.60;44.20;;;;;;5054809;28;20434;-88
2020/12/09 06:41:44;;;;;;;35.07;19.57;;;10.60;41.40;;;;;;5055463;28;20555;-88
2020/12/09 06:44:13;;;;;;;41.13;22.20;;;10.00;44.40;;;;;;5054412;28;20436;-88
2020/12/09 06:46:44;;;;;;;39.00;22.70;;;10.10;43.60;;;;;;5054227;28;20452;-88
2020/12/09 06:49:41;;;;;;;39.70;20.00;;;9.70;46.10;;;;;;5054710;28;20875;-88
2020/12/09 06:52:30;;;;;;;40.73;20.80;;;9.40;46.70;;;;;;5054666;28;20484;-88
2020/12/09 06:54:57;;;;;;;42.10;23.60;;;9.90;49.20;;;;;;5055920;28;20444;-88
2020/12/09 06:57:26;;;;;;;44.40;21.50;;;10.70;47.80;;;;;;5055986;28;20448;-88
2020/12/09 07:00:15;;;;;;;46.83;24.97;;;10.40;42.90;;;;;;5056470;28;20817;-88
2020/12/09 07:02:42;;;;;;;48.47;25.40;;;10.00;43.60;;;;;;5056337;28;20459;-88
2020/12/09 07:05:11;;;;;;;61.43;26.10;;;9.50;45.50;;;;;;5056417;28;20471;-87
2020/12/09 07:07:40;;;;;;;42.53;22.80;;;9.50;45.00;;;;;;5056286;28;20449;-88
2020/12/09 07:10:13;;;;;;;41.47;21.17;;;9.60;46.50;;;;;;5056657;28;20503;-88
2020/12/09 07:12:39;;;;;;;50.10;26.00;;;9.20;46.00;;;;;;5055636;28;20476;-88
2020/12/09 07:15:06;;;;;;;46.47;22.97;;;9.10;47.10;;;;;;5055968;28;20474;-88
2020/12/09 07:17:33;;;;;;;48.40;24.47;;;9.20;47.40;;;;;;5056180;28;20444;-88
2020/12/09 07:20:00;;;;;;;45.27;24.20;;;9.40;46.90;;;;;;5056313;28;20456;-88
2020/12/09 07:22:28;;;;;;;43.80;23.20;;;9.60;47.60;;;;;;5055888;28;20468;-88
2020/12/09 07:24:55;;;;;;;40.17;22.33;;;9.90;48.00;;;;;;5055446;28;20525;-88
2020/12/09 07:27:24;;;;;;;45.97;25.33;;;10.60;47.10;;;;;;5056608;28;20536;-88
2020/12/09 07:29:54;;;;;;;45.40;24.77;;;10.40;44.40;;;;;;5054268;28;20953;-88
2020/12/09 07:32:22;;;;;;;33.43;17.73;;;10.10;44.30;;;;;;5053786;28;20945;-89
2020/12/09 07:34:55;;;;;;;46.03;25.47;;;10.40;46.70;;;;;;5054393;28;20455;-88
2020/12/09 07:37:23;;;;;;;42.40;23.83;;;10.60;44.00;;;;;;5055960;28;20421;-88
2020/12/09 07:39:52;;;;;;;53.00;26.80;;;10.50;45.30;;;;;;5057142;28;20456;-88
2020/12/09 07:42:21;;;;;;;50.17;26.03;;;10.10;43.60;;;;;;5057119;28;20511;-88
2020/12/09 07:44:49;;;;;;;51.53;26.90;;;9.70;46.80;;;;;;5054528;28;20455;-88
2020/12/09 07:47:22;;;;;;;39.30;20.17;;;10.10;45.70;;;;;;5056956;28;20817;-89
2020/12/09 07:49:54;;;;;;;56.87;28.97;;;10.30;45.60;;;;;;5058660;28;20413;-88
2020/12/09 07:52:25;;;;;;;51.13;26.90;;;10.30;44.80;;;;;;5055741;28;20845;-88
2020/12/09 07:54:55;;;;;;;48.97;26.40;;;10.50;46.20;;;;;;5055976;28;20965;-88
2020/12/09 07:57:23;;;;;;;59.33;28.10;;;11.00;45.70;;;;;;5062344;28;20430;-87
2020/12/09 07:59:54;;;;;;;47.53;23.90;;;11.10;44.40;;;;;;5058133;28;20995;-88
2020/12/09 08:02:22;;;;;;;53.60;28.53;;;11.00;44.80;;;;;;5056919;28;20508;-87
2020/12/09 08:05:05;;;;;;;45.20;24.27;;;11.00;43.50;;;;;;5054879;28;20447;-87
2020/12/09 08:07:32;;;;;;;36.10;19.73;;;10.90;43.80;;;;;;5054518;28;20420;-88
2020/12/09 08:10:11;;;;;;;47.77;25.70;;;10.80;44.00;;;;;;5054152;28;20808;-88
2020/12/09 08:12:38;;;;;;;45.63;25.90;;;10.50;43.00;;;;;;5053853;28;20475;-88
2020/12/09 08:15:05;;;;;;;48.80;25.33;;;9.30;45.30;;;;;;5054247;28;20511;-88
2020/12/09 08:17:33;;;;;;;51.93;27.47;;;9.00;47.20;;;;;;5054759;28;20440;-88
2020/12/09 08:20:04;;;;;;;37.30;20.20;;;8.90;46.70;;;;;;5054021;28;20856;-88
2020/12/09 08:22:31;;;;;;;48.10;24.33;;;9.20;49.20;;;;;;5053832;28;20484;-88
2020/12/09 08:25:06;;;;;;;52.33;27.77;;;9.10;48.40;;;;;;5055473;28;20498;-88
2020/12/09 08:27:40;;;;;;;43.67;22.00;;;9.70;46.80;;;;;;5057955;28;20427;-88
2020/12/09 08:30:17;;;;;;;49.87;25.43;;;9.90;46.70;;;;;;5068986;28;20450;-88
2020/12/09 08:33:18;;;;;;;50.50;25.80;;;9.70;46.30;;;;;;5073706;28;20471;-87
2020/12/09 08:35:50;;;;;;;48.33;27.30;;;9.10;46.20;;;;;;5042843;28;20463;-88
2020/12/09 08:38:26;;;;;;;43.97;24.40;;;8.90;46.50;;;;;;5073935;28;20413;-88
2020/12/09 08:40:55;;;;;;;47.77;26.40;;;9.20;47.90;;;;;;5072628;28;20459;-88
2020/12/09 08:43:23;;;;;;;51.73;26.83;;;9.40;47.40;;;;;;5073511;28;20486;-88
2020/12/09 08:45:49;;;;;;;48.53;24.87;;;9.40;47.10;;;;;;5064943;28;20987;-88
2020/12/09 08:48:18;;;;;;;49.27;26.43;;;9.40;48.20;;;;;;5065133;28;20467;-88
2020/12/09 08:50:45;;;;;;;48.80;25.50;;;9.70;47.00;;;;;;5073554;28;20474;-88
2020/12/09 08:53:12;;;;;;;34.40;18.47;;;10.10;47.70;;;;;;5078194;28;20534;-88
2020/12/09 08:55:38;;;;;;;50.53;27.90;;;10.70;47.00;;;;;;5079172;28;20452;-88
2020/12/09 08:58:06;;;;;;;52.03;28.10;;;11.10;45.10;;;;;;5079387;28;20443;-87
2020/12/09 09:00:36;;;;;;;47.30;26.00;;;10.90;44.40;;;;;;5079080;28;20464;-87
2020/12/09 09:03:03;;;;;;;54.00;26.93;;;11.10;46.10;;;;;;5079506;28;20439;-87
2020/12/09 09:05:29;;;;;;;45.00;22.60;;;11.00;43.80;;;;;;5079461;28;20443;-88
2020/12/09 09:07:56;;;;;;;42.27;23.80;;;11.20;45.70;;;;;;5073648;28;20442;-87
2020/12/09 09:10:23;;;;;;;49.00;25.73;;;11.60;44.60;;;;;;5067454;28;20440;-88
2020/12/09 09:12:50;;;;;;;36.53;19.97;;;11.80;42.30;;;;;;5064333;28;20975;-89
2020/12/09 09:15:17;;;;;;;29.57;17.40;;;11.80;43.70;;;;;;5064557;28;20452;-87
2020/12/09 09:17:44;;;;;;;41.20;21.80;;;11.90;44.80;;;;;;5062732;28;21005;-87
2020/12/09 09:20:11;;;;;;;43.27;24.03;;;11.80;43.80;;;;;;5080744;22;20518;-84
2020/12/09 09:22:37;;;;;;;37.57;21.40;;;12.10;44.20;;;;;;5071213;28;20434;-85
2020/12/09 09:25:05;;;;;;;32.90;18.77;;;12.30;43.70;;;;;;5071235;28;20409;-83
2020/12/09 09:27:32;;;;;;;41.83;23.80;;;12.30;42.80;;;;;;5084627;28;20502;-83
2020/12/09 09:29:58;;;;;;;43.37;23.53;;;11.70;41.20;;;;;;5092688;28;20463;-85
2020/12/09 09:32:26;;;;;;;36.40;20.17;;;11.20;42.70;;;;;;5093448;28;20534;-85
2020/12/09 09:34:53;;;;;;;34.67;20.33;;;11.20;44.80;;;;;;5092989;28;20440;-85
2020/12/09 09:37:21;;;;;;;35.13;18.97;;;11.10;42.40;;;;;;5090649;28;20431;-85
2020/12/09 09:39:49;;;;;;;49.80;25.33;;;11.30;44.30;;;;;;5091944;28;20444;-85
2020/12/09 09:42:17;;;;;;;44.90;23.47;;;10.80;42.40;;;;;;5092600;28;20460;-85
2020/12/09 09:44:44;;;;;;;40.63;22.20;;;10.70;43.00;;;;;;5088290;28;20448;-84
2020/12/09 09:47:11;;;;;;;45.43;21.50;;;10.50;44.10;;;;;;5082210;28;20513;-84
2020/12/09 09:49:38;;;;;;;41.10;22.20;;;10.10;43.30;;;;;;5082523;28;20466;-84
2020/12/09 09:52:06;;;;;;;49.37;25.23;;;9.70;47.30;;;;;;5082787;28;20439;-84
2020/12/09 09:54:32;;;;;;;41.67;24.10;;;10.00;44.20;;;;;;5082095;28;20529;-84
2020/12/09 09:56:59;;;;;;;41.00;22.30;;;9.40;45.90;;;;;;5082297;28;20506;-84
2020/12/09 09:59:26;;;;;;;44.10;24.63;;;9.30;47.60;;;;;;5082336;28;20439;-84
2020/12/09 10:01:53;;;;;;;38.50;23.03;;;9.80;45.90;;;;;;5087870;28;20494;-84
2020/12/09 10:04:20;;;;;;;38.43;22.57;;;9.20;45.70;;;;;;5093275;28;20435;-84
2020/12/09 10:06:50;;;;;;;42.63;23.43;;;8.80;49.50;;;;;;5091411;28;20563;-84
2020/12/09 10:09:17;;;;;;;34.23;20.37;;;9.30;48.50;;;;;;5080986;28;20456;-83
2020/12/09 10:11:43;;;;;;;45.70;24.87;;;9.60;49.30;;;;;;5081806;28;20464;-84
2020/12/09 10:14:10;;;;;;;40.90;22.70;;;9.70;46.80;;;;;;5082380;28;21049;-84
2020/12/09 10:16:39;;;;;;;47.00;23.43;;;10.10;46.00;;;;;;5083654;28;20439;-84
2020/12/09 10:19:06;;;;;;;42.27;23.83;;;10.00;44.30;;;;;;5082383;28;20453;-84
2020/12/09 10:21:34;;;;;;;41.43;20.80;;;9.80;45.90;;;;;;5081974;28;20467;-84
2020/12/09 10:24:03;;;;;;;36.77;21.30;;;10.00;45.70;;;;;;5082042;28;20448;-84
2020/12/09 10:26:31;;;;;;;46.50;24.33;;;10.30;45.70;;;;;;5083939;28;20423;-84
2020/12/09 10:29:00;;;;;;;40.07;22.30;;;10.00;44.70;;;;;;5083007;28;20432;-85
2020/12/09 10:31:33;;;;;;;41.10;22.17;;;10.30;47.10;;;;;;5083160;28;20483;-84
2020/12/09 10:33:59;;;;;;;43.23;23.57;;;10.70;45.60;;;;;;5082364;28;20894;-84
2020/12/09 10:36:26;;;;;;;45.53;23.27;;;10.70;43.80;;;;;;5082734;28;20454;-84
2020/12/09 10:38:52;;;;;;;40.03;21.77;;;10.90;44.50;;;;;;5082816;28;20463;-84
2020/12/09 10:41:21;;;;;;;45.97;23.30;;;11.10;44.10;;;;;;5082459;28;20842;-84
2020/12/09 10:43:50;;;;;;;42.83;22.47;;;11.10;44.20;;;;;;5083011;28;20448;-84
2020/12/09 10:46:17;;;;;;;39.60;22.23;;;11.30;42.70;;;;;;5081190;28;20447;-84
2020/12/09 10:48:43;;;;;;;28.90;17.50;;;11.00;43.80;;;;;;5081325;28;20473;-84
2020/12/09 10:51:10;;;;;;;41.47;23.73;;;10.60;44.90;;;;;;5081010;28;20471;-84
2020/12/09 10:53:37;;;;;;;38.10;22.60;;;10.40;43.90;;;;;;5081433;28;20481;-85
2020/12/09 10:56:03;;;;;;;59.53;27.93;;;10.70;45.90;;;;;;5093547;28;20501;-84
2020/12/09 10:58:30;;;;;;;60.60;30.90;;;11.00;45.40;;;;;;5082092;28;20844;-83
2020/12/09 11:00:57;;;;;;;40.27;24.00;;;11.00;43.70;;;;;;5081523;28;20519;-84
2020/12/09 11:03:24;;;;;;;29.33;18.03;;;11.20;43.70;;;;;;5081490;28;20431;-84
2020/12/09 11:05:52;;;;;;;45.50;25.00;;;10.60;45.50;;;;;;5081306;28;20451;-84
2020/12/09 11:08:18;;;;;;;38.17;22.10;;;10.60;43.10;;;;;;5081089;28;20574;-84
2020/12/09 11:10:45;;;;;;;41.13;23.47;;;10.00;43.50;;;;;;5081809;28;20494;-84
2020/12/09 11:13:11;;;;;;;45.80;25.30;;;10.50;46.10;;;;;;5082743;28;20521;-84
2020/12/09 11:15:39;;;;;;;40.97;24.40;;;10.80;43.60;;;;;;5082217;28;20432;-84
2020/12/09 11:18:06;;;;;;;29.50;17.17;;;10.50;42.30;;;;;;5083450;28;20506;-84
2020/12/09 11:20:34;;;;;;;41.40;19.20;;;10.60;45.80;;;;;;5082856;28;20599;-84
2020/12/09 11:23:01;;;;;;;35.70;21.70;;;10.90;44.80;;;;;;5083338;28;20435;-84
2020/12/09 11:25:27;;;;;;;37.23;21.43;;;10.90;42.60;;;;;;5084172;28;20453;-84
2020/12/09 11:27:54;;;;;;;36.40;20.70;;;10.70;44.00;;;;;;5085734;28;20439;-84
2020/12/09 11:30:20;;;;;;;33.57;17.67;;;11.00;44.60;;;;;;5085459;28;20490;-83
2020/12/09 11:32:48;;;;;;;32.97;20.33;;;10.90;43.80;;;;;;5083862;28;21080;-84
2020/12/09 11:35:14;;;;;;;34.67;21.90;;;11.50;45.30;;;;;;5083425;28;20448;-84
2020/12/09 11:37:41;;;;;;;31.40;19.00;;;11.80;43.50;;;;;;5084580;28;20862;-83
2020/12/09 11:40:08;;;;;;;37.50;20.43;;;11.80;42.20;;;;;;5086082;28;21019;-83
2020/12/09 11:42:36;;;;;;;36.17;20.53;;;11.50;40.50;;;;;;5084151;28;20519;-83
2020/12/09 11:45:04;;;;;;;33.20;20.00;;;11.50;42.10;;;;;;5083525;28;20432;-83
2020/12/09 11:47:30;;;;;;;32.67;19.30;;;11.00;41.60;;;;;;5084924;28;20459;-84
2020/12/09 11:49:58;;;;;;;36.27;21.37;;;11.10;43.80;;;;;;5087905;28;20471;-85
2020/12/09 11:52:24;;;;;;;35.73;21.03;;;11.30;43.80;;;;;;5085018;28;20564;-84
2020/12/09 11:54:51;;;;;;;34.90;20.00;;;11.40;42.00;;;;;;5084438;28;20484;-84
2020/12/09 11:57:17;;;;;;;42.17;23.80;;;11.10;42.50;;;;;;5082843;28;20851;-84
2020/12/09 11:59:44;;;;;;;34.57;19.10;;;10.50;42.20;;;;;;5085705;28;20447;-85
2020/12/09 12:02:10;;;;;;;37.70;21.60;;;10.00;44.20;;;;;;5088789;28;20428;-85
2020/12/09 12:04:37;;;;;;;47.50;22.33;;;9.40;45.30;;;;;;5088743;28;20447;-83
2020/12/09 12:07:04;;;;;;;36.20;20.40;;;9.10;46.40;;;;;;5087132;28;20512;-84
2020/12/09 12:09:31;;;;;;;42.17;22.50;;;9.50;48.60;;;;;;5087265;28;20448;-84
2020/12/09 12:11:57;;;;;;;39.70;22.53;;;9.60;45.80;;;;;;5087193;28;20458;-83
2020/12/09 12:14:24;;;;;;;37.00;22.13;;;8.80;47.20;;;;;;5087447;28;20509;-84
2020/12/09 12:16:50;;;;;;;39.47;21.00;;;9.00;47.10;;;;;;5087859;28;20538;-84
2020/12/09 12:19:18;;;;;;;49.30;23.23;;;9.10;48.80;;;;;;5087855;28;20504;-84
2020/12/09 12:21:48;;;;;;;44.80;22.20;;;8.40;48.20;;;;;;5086906;28;20471;-84
2020/12/09 12:24:16;;;;;;;39.50;22.00;;;8.60;49.40;;;;;;5086541;28;20471;-84
2020/12/09 12:26:43;;;;;;;47.40;24.80;;;9.30;48.20;;;;;;5086417;28;20831;-84
2020/12/09 12:29:09;;;;;;;41.30;23.17;;;9.40;46.60;;;;;;5085834;28;20508;-84
2020/12/09 12:31:36;;;;;;;48.83;23.47;;;9.60;47.30;;;;;;5085695;28;20467;-84
2020/12/09 12:34:03;;;;;;;32.87;19.90;;;10.00;46.00;;;;;;5086851;28;20479;-84